createdAt,value
2023-02-15T00:01:35.902Z,70.64
2023-02-15T00:04:02.776Z,70.79
2023-02-15T00:06:29.244Z,70.92
2023-02-15T00:08:56.251Z,70.99
2023-02-15T00:11:41.502Z,71.61
2023-02-15T00:14:26.896Z,71.50
2023-02-15T00:16:54.199Z,71.56
2023-02-15T00:19:21.640Z,71.05
2023-02-15T00:21:49.582Z,72.54
2023-02-15T00:24:17.683Z,72.64
2023-02-15T00:26:44.960Z,72.32
2023-02-15T00:29:12.316Z,73.02
2023-02-15T00:31:39.172Z,72.04
2023-02-15T00:34:25.950Z,71.22
2023-02-15T00:36:53.114Z,70.83
2023-02-15T00:39:20.024Z,71.48
2023-02-15T00:41:47.120Z,71.78
2023-02-15T00:44:14.325Z,72.22
2023-02-15T00:46:41.032Z,71.83
2023-02-15T00:49:07.629Z,73.51
2023-02-15T00:51:34.230Z,72.10
2023-02-15T00:54:00.799Z,73.59
2023-02-15T00:56:29.377Z,73.86
2023-02-15T00:58:56.146Z,75.32
2023-02-15T01:01:24.494Z,76.02
2023-02-15T01:03:51.010Z,74.91
2023-02-15T01:06:17.908Z,74.85
2023-02-15T01:08:47.970Z,77.49
2023-02-15T01:11:22.995Z,77.88
2023-02-15T01:13:56.477Z,78.22
2023-02-15T01:16:24.405Z,78.41
2023-02-15T01:18:51.071Z,79.78
2023-02-15T01:21:20.105Z,79.55
2023-02-15T01:23:46.732Z,79.14
2023-02-15T01:26:14.133Z,79.38
2023-02-15T01:28:40.697Z,78.43
2023-02-15T01:31:12.236Z,76.96
2023-02-15T01:33:39.039Z,77.51
2023-02-15T01:36:06.000Z,78.75
2023-02-15T01:38:32.871Z,77.49
2023-02-15T01:41:17.823Z,77.71
2023-02-15T01:43:56.557Z,78.35
2023-02-15T01:46:44.332Z,76.97
2023-02-15T01:49:14.333Z,79.48
2023-02-15T01:51:42.422Z,78.23
2023-02-15T01:54:28.528Z,79.74
2023-02-15T01:56:59.712Z,80.90
2023-02-15T01:59:26.434Z,81.18
2023-02-15T02:01:55.805Z,79.38
2023-02-15T02:04:26.892Z,80.96
2023-02-15T02:06:54.243Z,80.67
2023-02-15T02:09:20.701Z,80.43
2023-02-15T02:11:48.389Z,77.92
2023-02-15T02:14:15.815Z,77.26
2023-02-15T02:17:29.306Z,80.43
2023-02-15T02:20:29.904Z,81.32
2023-02-15T02:23:08.133Z,80.42
2023-02-15T02:26:12.350Z,78.37
2023-02-15T02:29:08.404Z,77.98
2023-02-15T02:31:45.787Z,77.65
2023-02-15T02:34:27.065Z,77.54
2023-02-15T02:37:11.732Z,78.96
2023-02-15T02:39:42.911Z,78.73
2023-02-15T02:42:40.536Z,76.94
2023-02-15T02:45:15.759Z,76.07
2023-02-15T02:47:52.308Z,78.42
2023-02-15T02:50:23.784Z,78.20
2023-02-15T02:52:52.570Z,78.16
2023-02-15T02:55:36.854Z,78.35
2023-02-15T02:58:17.921Z,76.85
2023-02-15T03:00:49.974Z,77.60
2023-02-15T03:03:22.365Z,77.11
2023-02-15T03:05:51.192Z,77.45
2023-02-15T03:08:22.899Z,77.67
2023-02-15T03:10:53.212Z,77.86
2023-02-15T03:13:20.084Z,76.94
2023-02-15T03:16:05.740Z,77.35
2023-02-15T03:18:37.006Z,77.30
2023-02-15T03:21:04.479Z,78.59
2023-02-15T03:23:31.560Z,79.19
2023-02-15T03:26:00.680Z,77.77
2023-02-15T03:28:35.076Z,77.27
2023-02-15T03:31:04.071Z,77.30
2023-02-15T03:33:30.912Z,76.18
2023-02-15T03:36:39.246Z,76.44
2023-02-15T03:39:14.089Z,76.77
2023-02-15T03:41:47.190Z,76.48
2023-02-15T03:44:21.679Z,76.38
2023-02-15T03:46:54.810Z,77.37
2023-02-15T03:49:25.701Z,77.21
2023-02-15T03:51:54.193Z,76.66
2023-02-15T03:54:44.505Z,77.70
2023-02-15T03:57:31.326Z,77.09
2023-02-15T04:00:18.222Z,78.76
2023-02-15T04:02:56.897Z,77.80
2023-02-15T04:05:23.338Z,77.51
2023-02-15T04:07:49.822Z,77.51
2023-02-15T04:10:35.001Z,77.09
2023-02-15T04:13:01.467Z,77.13
2023-02-15T04:15:46.742Z,77.63
2023-02-15T04:18:13.240Z,77.37
2023-02-15T04:20:58.304Z,76.63
2023-02-15T04:23:43.375Z,76.56
2023-02-15T04:26:09.819Z,77.16
2023-02-15T04:28:36.696Z,76.44
2023-02-15T04:31:03.172Z,76.83
2023-02-15T04:33:29.744Z,76.93
2023-02-15T04:35:57.235Z,77.83
2023-02-15T04:38:23.791Z,76.54
2023-02-15T04:40:52.156Z,77.86
2023-02-15T04:43:19.760Z,77.85
2023-02-15T04:45:51.387Z,77.74
2023-02-15T04:48:18.897Z,78.04
2023-02-15T04:50:45.966Z,78.03
2023-02-15T04:53:12.628Z,78.06
2023-02-15T04:55:39.149Z,79.17
2023-02-15T04:58:05.623Z,80.30
2023-02-15T05:00:32.116Z,80.13
2023-02-15T05:02:58.605Z,79.74
2023-02-15T05:05:25.113Z,78.71
2023-02-15T05:07:51.559Z,77.50
2023-02-15T05:10:18.191Z,78.83
2023-02-15T05:12:44.700Z,78.58
2023-02-15T05:15:11.247Z,77.93
2023-02-15T05:17:37.743Z,77.22
2023-02-15T05:20:05.028Z,76.78
2023-02-15T05:22:31.478Z,77.04
2023-02-15T05:25:16.594Z,76.95
2023-02-15T05:28:02.842Z,77.76
2023-02-15T05:30:30.426Z,78.37
2023-02-15T05:32:56.956Z,79.17
2023-02-15T05:35:23.519Z,78.08
2023-02-15T05:37:50.004Z,76.30
2023-02-15T05:40:16.637Z,75.90
2023-02-15T05:42:43.132Z,77.71
2023-02-15T05:45:09.848Z,75.73
2023-02-15T05:47:36.342Z,75.90
2023-02-15T05:50:02.851Z,75.78
2023-02-15T05:52:29.272Z,76.28
2023-02-15T05:54:55.758Z,75.28
2023-02-15T05:57:22.222Z,77.93
2023-02-15T05:59:48.672Z,76.65
2023-02-15T06:02:25.305Z,75.97
2023-02-15T06:04:51.756Z,75.79
2023-02-15T06:07:18.246Z,74.33
2023-02-15T06:09:53.658Z,75.31
2023-02-15T06:12:20.135Z,75.44
2023-02-15T06:14:46.581Z,74.52
2023-02-15T06:17:13.211Z,75.52
2023-02-15T06:19:39.660Z,74.47
2023-02-15T06:22:07.344Z,74.44
2023-02-15T06:24:33.796Z,75.09
2023-02-15T06:27:00.249Z,75.13
2023-02-15T06:29:26.760Z,75.52
2023-02-15T06:31:53.304Z,75.93
2023-02-15T06:34:19.926Z,76.48
2023-02-15T06:36:46.420Z,75.86
2023-02-15T06:39:12.889Z,75.79
2023-02-15T06:41:40.010Z,76.09
2023-02-15T06:44:06.525Z,76.09
2023-02-15T06:46:33.146Z,75.24
2023-02-15T06:48:59.741Z,75.33
2023-02-15T06:51:26.264Z,75.34
2023-02-15T06:53:52.744Z,76.11
2023-02-15T06:56:19.233Z,76.78
2023-02-15T06:58:46.987Z,77.24
2023-02-15T07:01:13.688Z,77.47
2023-02-15T07:03:44.363Z,77.64
2023-02-15T07:06:11.714Z,78.92
2023-02-15T07:08:39.397Z,79.61
2023-02-15T07:11:25.535Z,78.73
2023-02-15T07:13:53.348Z,78.66
2023-02-15T07:16:20.655Z,77.56
2023-02-15T07:18:47.364Z,77.32
2023-02-15T07:21:13.840Z,77.01
2023-02-15T07:23:40.706Z,77.67
2023-02-15T07:26:08.379Z,77.98
2023-02-15T07:28:35.522Z,77.78
2023-02-15T07:31:03.606Z,78.41
2023-02-15T07:33:32.627Z,77.38
2023-02-15T07:36:01.363Z,78.17
2023-02-15T07:38:30.538Z,77.34
2023-02-15T07:41:01.131Z,78.15
2023-02-15T07:43:28.567Z,78.47
2023-02-15T07:45:55.115Z,78.05
2023-02-15T07:48:23.280Z,77.40
2023-02-15T07:50:51.297Z,77.53
2023-02-15T07:53:17.755Z,76.17
2023-02-15T07:55:44.259Z,76.17
2023-02-15T07:58:10.820Z,77.38
2023-02-15T08:00:55.869Z,76.74
2023-02-15T08:03:27.890Z,77.70
2023-02-15T08:05:59.614Z,78.86
2023-02-15T08:08:33.546Z,77.55
2023-02-15T08:11:25.849Z,78.10
2023-02-15T08:13:54.861Z,77.62
2023-02-15T08:16:22.921Z,78.14
2023-02-15T08:18:49.458Z,76.85
2023-02-15T08:21:15.932Z,76.36
2023-02-15T08:23:42.527Z,77.59
2023-02-15T08:26:09.037Z,77.06
2023-02-15T08:28:35.523Z,77.01
2023-02-15T08:31:09.653Z,77.08
2023-02-15T08:33:37.562Z,77.43
2023-02-15T08:36:05.930Z,78.26
2023-02-15T08:38:33.730Z,77.12
2023-02-15T08:41:24.804Z,76.97
2023-02-15T08:43:55.894Z,78.73
2023-02-15T08:46:23.916Z,76.66
2023-02-15T08:48:50.980Z,77.54
2023-02-15T08:51:23.294Z,77.23
2023-02-15T08:53:52.239Z,78.13
2023-02-15T08:56:22.696Z,77.45
2023-02-15T08:58:49.551Z,78.17
2023-02-15T09:01:24.307Z,78.01
2023-02-15T09:03:55.265Z,79.42
2023-02-15T09:06:22.895Z,78.02
2023-02-15T09:08:52.787Z,77.78
2023-02-15T09:11:24.888Z,78.47
2023-02-15T09:13:54.807Z,78.20
2023-02-15T09:16:22.577Z,79.58
2023-02-15T09:18:49.808Z,78.13
2023-02-15T09:21:18.746Z,79.99
2023-02-15T09:23:47.030Z,78.30
2023-02-15T09:26:16.548Z,78.39
2023-02-15T09:28:43.132Z,78.97
2023-02-15T09:31:16.128Z,78.39
2023-02-15T09:33:44.531Z,78.64
2023-02-15T09:36:20.236Z,78.73
2023-02-15T09:38:47.429Z,78.41
2023-02-15T09:41:35.747Z,78.53
2023-02-15T09:44:08.259Z,78.26
2023-02-15T09:46:48.935Z,78.68
2023-02-15T09:49:56.689Z,78.37
2023-02-15T09:52:49.188Z,77.29
2023-02-15T09:55:37.415Z,79.00
2023-02-15T09:58:33.345Z,78.05
2023-02-15T10:01:20.748Z,78.15
2023-02-15T10:04:13.633Z,78.59
2023-02-15T10:06:45.215Z,77.95
2023-02-15T10:09:50.196Z,79.06
2023-02-15T10:12:25.793Z,77.98
2023-02-15T10:15:10.135Z,77.92
2023-02-15T10:18:10.722Z,77.10
2023-02-15T10:20:58.791Z,79.30
2023-02-15T10:23:38.841Z,80.20
2023-02-15T10:26:20.014Z,78.12
2023-02-15T10:28:53.554Z,77.64
2023-02-15T10:32:04.819Z,79.58
2023-02-15T10:34:41.289Z,79.77
2023-02-15T10:37:35.614Z,79.48
2023-02-15T10:40:28.113Z,79.44
2023-02-15T10:43:07.860Z,80.87
2023-02-15T10:45:48.064Z,79.75
2023-02-15T10:48:23.167Z,79.67
2023-02-15T10:50:54.184Z,78.81
2023-02-15T10:53:51.666Z,78.32
2023-02-15T10:56:27.852Z,77.88
2023-02-15T10:59:31.892Z,78.80
2023-02-15T11:02:58.445Z,79.52
2023-02-15T11:05:39.770Z,78.36
2023-02-15T11:08:08.746Z,78.90
2023-02-15T11:10:39.568Z,78.89
2023-02-15T11:13:13.420Z,77.67
2023-02-15T11:15:53.517Z,77.16
2023-02-15T11:18:32.063Z,77.47
2023-02-15T11:21:04.731Z,78.55
2023-02-15T11:23:33.167Z,79.31
2023-02-15T11:26:05.801Z,79.05
2023-02-15T11:28:39.365Z,79.03
2023-02-15T11:31:26.940Z,80.35
2023-02-15T11:34:01.144Z,79.86
2023-02-15T11:36:33.249Z,78.37
2023-02-15T11:39:04.842Z,79.40
2023-02-15T11:41:36.169Z,79.26
2023-02-15T11:44:27.305Z,79.07
2023-02-15T11:46:53.882Z,79.60
2023-02-15T11:49:28.613Z,79.52
2023-02-15T11:51:56.840Z,79.75
2023-02-15T11:54:29.120Z,79.71
2023-02-15T11:57:19.060Z,78.77
2023-02-15T11:59:53.864Z,78.28
2023-02-15T12:02:23.211Z,78.32
2023-02-15T12:05:00.385Z,79.16
2023-02-15T12:07:34.604Z,80.42
2023-02-15T12:10:33.276Z,79.77
2023-02-15T12:13:17.346Z,80.51
2023-02-15T12:15:53.136Z,79.70
2023-02-15T12:18:45.927Z,80.89
2023-02-15T12:21:16.126Z,80.55
2023-02-15T12:23:48.914Z,80.05
2023-02-15T12:26:16.110Z,78.29
2023-02-15T12:28:45.343Z,78.33
2023-02-15T12:31:33.124Z,80.56
2023-02-15T12:34:03.423Z,81.39
2023-02-15T12:36:35.051Z,80.10
2023-02-15T12:39:13.670Z,79.16
2023-02-15T12:41:55.551Z,78.44
2023-02-15T12:44:31.018Z,78.53
2023-02-15T12:46:59.285Z,79.48
2023-02-15T12:49:27.147Z,79.38
2023-02-15T12:51:59.493Z,78.54
2023-02-15T12:54:41.103Z,78.15
2023-02-15T12:57:30.755Z,77.24
2023-02-15T13:00:01.706Z,77.41
2023-02-15T13:02:32.223Z,77.47
2023-02-15T13:05:06.734Z,77.89
2023-02-15T13:07:33.649Z,77.74
2023-02-15T13:10:00.374Z,76.89
2023-02-15T13:12:29.954Z,77.11
2023-02-15T13:14:57.130Z,78.49
2023-02-15T13:17:32.752Z,78.24
2023-02-15T13:20:05.010Z,78.18
2023-02-15T13:22:44.883Z,78.53
2023-02-15T13:25:20.073Z,78.98
2023-02-15T13:27:47.635Z,78.62
2023-02-15T13:30:27.055Z,76.71
2023-02-15T13:32:58.541Z,77.82
2023-02-15T13:35:26.312Z,78.46
2023-02-15T13:38:18.989Z,78.59
2023-02-15T13:40:55.393Z,80.10
2023-02-15T13:43:44.677Z,78.33
2023-02-15T13:46:44.002Z,79.15
2023-02-15T13:49:30.847Z,78.39
2023-02-15T13:52:19.278Z,79.32
2023-02-15T13:55:08.158Z,80.35
2023-02-15T13:57:50.073Z,79.20
2023-02-15T14:00:38.354Z,80.31
2023-02-15T14:03:38.986Z,79.74
2023-02-15T14:06:20.909Z,80.42
2023-02-15T14:08:59.333Z,77.60
2023-02-15T14:11:33.355Z,78.47
2023-02-15T14:14:10.244Z,78.58
2023-02-15T14:17:21.961Z,77.47
2023-02-15T14:20:18.591Z,77.07
2023-02-15T14:23:06.880Z,77.40
2023-02-15T14:25:42.201Z,77.58
2023-02-15T14:28:13.569Z,77.63
2023-02-15T14:30:43.537Z,78.25
2023-02-15T14:33:32.804Z,78.22
2023-02-15T14:36:01.980Z,79.13
2023-02-15T14:38:37.510Z,78.04
2023-02-15T14:41:18.343Z,76.78
2023-02-15T14:43:50.897Z,76.98
2023-02-15T14:46:25.178Z,78.47
2023-02-15T14:48:54.485Z,77.10
2023-02-15T14:51:44.062Z,77.45
2023-02-15T14:54:11.894Z,77.40
2023-02-15T14:56:39.987Z,78.14
2023-02-15T14:59:12.502Z,79.01
2023-02-15T15:01:39.624Z,79.04
2023-02-15T15:04:12.822Z,76.75
2023-02-15T15:06:42.439Z,76.84
2023-02-15T15:09:28.300Z,78.10
2023-02-15T15:12:02.470Z,76.96
2023-02-15T15:14:35.259Z,77.92
2023-02-15T15:17:04.957Z,78.30
2023-02-15T15:19:53.703Z,77.50
2023-02-15T15:22:24.745Z,77.42
2023-02-15T15:24:55.803Z,78.17
2023-02-15T15:27:40.675Z,77.50
2023-02-15T15:30:30.514Z,77.27
2023-02-15T15:33:07.990Z,76.78
2023-02-15T15:36:16.590Z,77.08
2023-02-15T15:39:14.029Z,77.50
2023-02-15T15:42:16.285Z,77.76
2023-02-15T15:45:04.941Z,77.95
2023-02-15T15:47:36.431Z,77.74
2023-02-15T15:50:13.308Z,78.00
2023-02-15T15:52:41.245Z,78.54
2023-02-15T15:55:18.061Z,77.96
2023-02-15T15:57:45.704Z,78.51
2023-02-15T16:00:30.546Z,80.20
2023-02-15T16:02:57.187Z,79.55
2023-02-15T16:05:24.088Z,79.58
2023-02-15T16:07:50.802Z,79.62
2023-02-15T16:10:23.740Z,78.91
2023-02-15T16:12:50.825Z,78.73
2023-02-15T16:15:22.597Z,78.26
2023-02-15T16:17:54.555Z,79.48
2023-02-15T16:20:24.507Z,78.74
2023-02-15T16:23:17.552Z,78.93
2023-02-15T16:25:58.772Z,79.88
2023-02-15T16:28:25.416Z,79.44
2023-02-15T16:31:13.108Z,78.96
2023-02-15T16:33:41.164Z,78.66
2023-02-15T16:36:21.618Z,78.91
2023-02-15T16:39:02.049Z,78.54
2023-02-15T16:41:29.858Z,79.21
2023-02-15T16:44:20.243Z,78.73
2023-02-15T16:46:56.016Z,79.16
2023-02-15T16:49:24.522Z,79.50
2023-02-15T16:52:00.649Z,80.80
2023-02-15T16:54:28.758Z,79.46
2023-02-15T16:56:55.486Z,80.19
2023-02-15T16:59:36.463Z,81.12
2023-02-15T17:02:40.091Z,80.13
2023-02-15T17:05:12.145Z,80.82
2023-02-15T17:07:51.200Z,79.35
2023-02-15T17:10:33.169Z,79.52
2023-02-15T17:13:06.108Z,78.27
2023-02-15T17:15:35.008Z,79.32
2023-02-15T17:18:06.324Z,78.00
2023-02-15T17:20:36.475Z,78.53
2023-02-15T17:23:05.147Z,78.49
2023-02-15T17:25:41.024Z,80.59
2023-02-15T17:28:18.184Z,79.97
2023-02-15T17:30:47.194Z,79.29
2023-02-15T17:33:40.626Z,79.35
2023-02-15T17:36:16.929Z,78.03
2023-02-15T17:38:58.784Z,78.81
2023-02-15T17:41:30.490Z,78.87
2023-02-15T17:43:57.245Z,78.61
2023-02-15T17:46:24.418Z,77.53
2023-02-15T17:48:55.735Z,79.31
2023-02-15T17:51:23.559Z,79.15
2023-02-15T17:54:08.859Z,79.30
2023-02-15T17:56:36.942Z,79.15
2023-02-15T17:59:07.636Z,79.51
2023-02-15T18:02:00.365Z,79.62
2023-02-15T18:04:45.400Z,78.58
2023-02-15T18:07:31.495Z,77.03
2023-02-15T18:10:16.870Z,79.23
2023-02-15T18:12:43.388Z,78.93
2023-02-15T18:15:12.323Z,79.87
2023-02-15T18:17:41.815Z,80.01
2023-02-15T18:20:31.393Z,78.79
2023-02-15T18:22:58.170Z,78.17
2023-02-15T18:25:25.648Z,77.81
2023-02-15T18:27:54.898Z,79.76
2023-02-15T18:30:23.793Z,80.85
2023-02-15T18:32:51.967Z,79.83
2023-02-15T18:35:20.283Z,80.21
2023-02-15T18:37:48.614Z,78.51
2023-02-15T18:40:20.449Z,78.08
2023-02-15T18:42:48.462Z,79.65
2023-02-15T18:45:22.323Z,80.61
2023-02-15T18:47:48.964Z,79.85
2023-02-15T18:50:17.540Z,79.16
2023-02-15T18:52:46.602Z,78.57
2023-02-15T18:55:22.072Z,78.65
2023-02-15T18:57:49.755Z,78.44
2023-02-15T19:00:22.772Z,77.50
2023-02-15T19:02:49.216Z,77.62
2023-02-15T19:05:17.885Z,77.97
2023-02-15T19:07:48.377Z,77.11
2023-02-15T19:10:22.977Z,77.77
2023-02-15T19:12:50.221Z,78.00
2023-02-15T19:15:18.559Z,78.40
2023-02-15T19:17:45.096Z,77.63
2023-02-15T19:20:38.373Z,77.41
2023-02-15T19:23:12.544Z,77.00
2023-02-15T19:25:39.617Z,77.63
2023-02-15T19:28:12.070Z,78.18
2023-02-15T19:30:38.634Z,78.43
2023-02-15T19:33:05.308Z,78.46
2023-02-15T19:35:35.235Z,79.14
2023-02-15T19:38:04.105Z,79.95
2023-02-15T19:40:32.458Z,78.45
2023-02-15T19:42:58.999Z,78.26
2023-02-15T19:45:27.909Z,77.84
2023-02-15T19:47:55.241Z,77.27
2023-02-15T19:50:26.441Z,77.56
2023-02-15T19:52:53.052Z,77.75
2023-02-15T19:55:29.668Z,76.63
2023-02-15T19:57:57.703Z,76.58
2023-02-15T20:00:26.452Z,76.49
2023-02-15T20:02:53.740Z,77.99
2023-02-15T20:05:20.780Z,77.47
2023-02-15T20:07:49.628Z,77.17
2023-02-15T20:10:21.359Z,76.61
2023-02-15T20:12:48.305Z,77.26
2023-02-15T20:15:24.010Z,77.11
2023-02-15T20:17:51.499Z,77.08
2023-02-15T20:20:18.818Z,76.67
2023-02-15T20:22:47.639Z,76.80
2023-02-15T20:25:24.191Z,77.04
2023-02-15T20:27:50.948Z,76.76
2023-02-15T20:30:31.816Z,75.84
2023-02-15T20:32:58.825Z,76.02
2023-02-15T20:35:31.128Z,76.04
2023-02-15T20:38:00.401Z,76.14
2023-02-15T20:40:32.093Z,75.39
2023-02-15T20:42:59.092Z,75.91
2023-02-15T20:45:28.302Z,76.76
2023-02-15T20:47:55.392Z,75.98
2023-02-15T20:50:24.427Z,75.86
2023-02-15T20:52:52.304Z,75.34
2023-02-15T20:55:24.379Z,75.52
2023-02-15T20:57:51.388Z,75.18
2023-02-15T21:00:26.506Z,75.12
2023-02-15T21:02:56.762Z,76.04
2023-02-15T21:05:25.903Z,76.67
2023-02-15T21:07:53.383Z,76.79
2023-02-15T21:10:22.526Z,76.82
2023-02-15T21:12:49.971Z,78.36
2023-02-15T21:15:35.641Z,78.30
2023-02-15T21:18:04.339Z,77.55
2023-02-15T21:20:32.329Z,77.79
2023-02-15T21:23:01.223Z,76.08
2023-02-15T21:25:30.912Z,75.04
2023-02-15T21:27:57.370Z,75.40
2023-02-15T21:30:24.639Z,76.22
2023-02-15T21:32:51.918Z,76.37
2023-02-15T21:35:19.418Z,76.15
2023-02-15T21:37:47.276Z,76.09
2023-02-15T21:40:13.696Z,75.97
2023-02-15T21:42:59.356Z,75.73
2023-02-15T21:45:44.394Z,75.90
2023-02-15T21:48:10.893Z,76.83
2023-02-15T21:50:56.583Z,76.36
2023-02-15T21:53:34.866Z,74.87
2023-02-15T21:56:04.046Z,76.19
2023-02-15T21:58:32.711Z,76.62
2023-02-15T22:01:00.736Z,77.69
2023-02-15T22:03:32.226Z,77.36
2023-02-15T22:05:58.763Z,78.86
2023-02-15T22:08:25.330Z,77.58
2023-02-15T22:10:53.945Z,77.45
2023-02-15T22:13:31.594Z,77.68
2023-02-15T22:15:58.794Z,76.98
2023-02-15T22:18:28.051Z,77.50
2023-02-15T22:20:55.698Z,78.11
2023-02-15T22:23:23.296Z,78.53
2023-02-15T22:25:55.424Z,77.63
2023-02-15T22:28:32.130Z,77.88
2023-02-15T22:30:58.647Z,77.38
2023-02-15T22:33:31.035Z,78.45
2023-02-15T22:35:57.946Z,79.64
2023-02-15T22:38:24.655Z,79.63
2023-02-15T22:40:56.068Z,80.09
2023-02-15T22:43:25.409Z,80.29
2023-02-15T22:45:52.262Z,79.45
2023-02-15T22:48:21.673Z,79.70
2023-02-15T22:50:48.762Z,78.71
2023-02-15T22:53:15.335Z,79.32
2023-02-15T22:55:42.103Z,81.78
2023-02-15T22:58:15.974Z,83.05
2023-02-15T23:00:42.584Z,80.42
2023-02-15T23:03:21.341Z,80.56
2023-02-15T23:05:48.025Z,80.38
2023-02-15T23:08:15.204Z,81.64
2023-02-15T23:10:43.560Z,79.84
2023-02-15T23:13:29.668Z,79.63
2023-02-15T23:16:02.713Z,78.64
2023-02-15T23:18:35.501Z,80.59
2023-02-15T23:21:21.988Z,80.30
2023-02-15T23:23:55.008Z,80.80
2023-02-15T23:26:25.729Z,80.41
2023-02-15T23:28:54.155Z,81.17
2023-02-15T23:31:36.645Z,80.61
2023-02-15T23:34:14.491Z,80.26
2023-02-15T23:36:41.025Z,82.20
2023-02-15T23:39:38.888Z,83.18
2023-02-15T23:42:10.056Z,80.92
2023-02-15T23:44:36.814Z,81.22
2023-02-15T23:47:03.502Z,79.91
2023-02-15T23:49:29.955Z,81.16
2023-02-15T23:51:57.501Z,82.13
2023-02-15T23:54:25.885Z,81.57
2023-02-15T23:56:59.362Z,79.90
2023-02-15T23:59:28.049Z,79.60
